sensor_id;sensor_type;location;lat;lon;timestamp;P1;durP1;ratioP1;P2;durP2;ratioP2
21301;SDS011;10810;48.270;9.996;2024-01-06T00:02:10;17.57;;;8.23;;
21301;SDS011;10810;48.270;9.996;2024-01-06T00:04:38;18.50;;;8.10;;
21301;SDS011;10810;48.270;9.996;2024-01-06T00:07:05;17.67;;;7.67;;
21301;SDS011;10810;48.270;9.996;2024-01-06T00:09:33;19.93;;;8.50;;
21301;SDS011;10810;48.270;9.996;2024-01-06T00:12:00;21.27;;;8.80;;
21301;SDS011;10810;48.270;9.996;2024-01-06T00:14:28;17.90;;;8.80;;
21301;SDS011;10810;48.270;9.996;2024-01-06T00:16:55;18.43;;;8.70;;
21301;SDS011;10810;48.270;9.996;2024-01-06T00:19:22;23.10;;;9.13;;
21301;SDS011;10810;48.270;9.996;2024-01-06T00:21:51;21.67;;;9.13;;
21301;SDS011;10810;48.270;9.996;2024-01-06T00:24:18;17.83;;;8.50;;
21301;SDS011;10810;48.270;9.996;2024-01-06T00:26:45;18.93;;;8.63;;
21301;SDS011;10810;48.270;9.996;2024-01-06T00:29:12;22.47;;;9.00;;
21301;SDS011;10810;48.270;9.996;2024-01-06T00:31:40;19.77;;;8.67;;
21301;SDS011;10810;48.270;9.996;2024-01-06T00:34:07;18.43;;;8.60;;
21301;SDS011;10810;48.270;9.996;2024-01-06T00:36:34;22.10;;;9.67;;
21301;SDS011;10810;48.270;9.996;2024-01-06T00:39:02;21.53;;;10.10;;
21301;SDS011;10810;48.270;9.996;2024-01-06T00:41:30;20.70;;;8.90;;
21301;SDS011;10810;48.270;9.996;2024-01-06T00:43:57;24.17;;;9.87;;
21301;SDS011;10810;48.270;9.996;2024-01-06T00:46:24;22.17;;;9.53;;
21301;SDS011;10810;48.270;9.996;2024-01-06T00:48:51;22.47;;;10.20;;
21301;SDS011;10810;48.270;9.996;2024-01-06T00:51:18;23.60;;;10.57;;
21301;SDS011;10810;48.270;9.996;2024-01-06T00:53:45;26.90;;;11.50;;
21301;SDS011;10810;48.270;9.996;2024-01-06T00:56:14;29.37;;;10.97;;
21301;SDS011;10810;48.270;9.996;2024-01-06T00:58:41;26.57;;;11.27;;
21301;SDS011;10810;48.270;9.996;2024-01-06T01:01:08;22.93;;;10.37;;
21301;SDS011;10810;48.270;9.996;2024-01-06T01:03:35;23.27;;;10.70;;
21301;SDS011;10810;48.270;9.996;2024-01-06T01:06:03;26.17;;;10.60;;
21301;SDS011;10810;48.270;9.996;2024-01-06T01:08:30;18.07;;;7.20;;
21301;SDS011;10810;48.270;9.996;2024-01-06T01:10:58;18.70;;;8.40;;
21301;SDS011;10810;48.270;9.996;2024-01-06T01:13:26;15.90;;;6.87;;
21301;SDS011;10810;48.270;9.996;2024-01-06T01:15:53;13.83;;;6.03;;
21301;SDS011;10810;48.270;9.996;2024-01-06T01:18:21;8.07;;;3.83;;
21301;SDS011;10810;48.270;9.996;2024-01-06T01:20:48;6.37;;;2.70;;
21301;SDS011;10810;48.270;9.996;2024-01-06T01:23:15;7.93;;;2.90;;
21301;SDS011;10810;48.270;9.996;2024-01-06T01:25:43;5.53;;;2.40;;
21301;SDS011;10810;48.270;9.996;2024-01-06T01:28:10;6.90;;;2.63;;
21301;SDS011;10810;48.270;9.996;2024-01-06T01:30:39;7.70;;;2.37;;
21301;SDS011;10810;48.270;9.996;2024-01-06T01:33:05;6.10;;;2.20;;
21301;SDS011;10810;48.270;9.996;2024-01-06T01:35:33;5.23;;;2.20;;
21301;SDS011;10810;48.270;9.996;2024-01-06T01:38:00;5.07;;;2.00;;
21301;SDS011;10810;48.270;9.996;2024-01-06T01:40:27;7.33;;;2.00;;
21301;SDS011;10810;48.270;9.996;2024-01-06T01:42:55;4.70;;;1.87;;
21301;SDS011;10810;48.270;9.996;2024-01-06T01:45:22;4.80;;;1.93;;
21301;SDS011;10810;48.270;9.996;2024-01-06T01:47:51;4.97;;;2.17;;
21301;SDS011;10810;48.270;9.996;2024-01-06T01:50:18;7.90;;;1.90;;
21301;SDS011;10810;48.270;9.996;2024-01-06T01:52:47;5.87;;;1.60;;
21301;SDS011;10810;48.270;9.996;2024-01-06T01:55:14;3.63;;;2.20;;
21301;SDS011;10810;48.270;9.996;2024-01-06T01:57:42;4.90;;;1.90;;
21301;SDS011;10810;48.270;9.996;2024-01-06T02:00:10;6.93;;;2.37;;
21301;SDS011;10810;48.270;9.996;2024-01-06T02:02:38;8.00;;;2.40;;
21301;SDS011;10810;48.270;9.996;2024-01-06T02:05:07;5.90;;;2.17;;
21301;SDS011;10810;48.270;9.996;2024-01-06T02:07:34;5.03;;;2.30;;
21301;SDS011;10810;48.270;9.996;2024-01-06T02:10:01;5.10;;;2.30;;
21301;SDS011;10810;48.270;9.996;2024-01-06T02:12:28;8.90;;;2.80;;
21301;SDS011;10810;48.270;9.996;2024-01-06T02:14:56;6.23;;;2.30;;
21301;SDS011;10810;48.270;9.996;2024-01-06T02:17:23;4.40;;;2.23;;
21301;SDS011;10810;48.270;9.996;2024-01-06T02:19:51;5.00;;;2.13;;
21301;SDS011;10810;48.270;9.996;2024-01-06T02:22:20;6.93;;;2.47;;
21301;SDS011;10810;48.270;9.996;2024-01-06T02:24:47;6.47;;;2.53;;
21301;SDS011;10810;48.270;9.996;2024-01-06T02:27:14;5.60;;;2.27;;
21301;SDS011;10810;48.270;9.996;2024-01-06T02:29:41;5.80;;;2.63;;
21301;SDS011;10810;48.270;9.996;2024-01-06T02:32:09;5.60;;;2.50;;
21301;SDS011;10810;48.270;9.996;2024-01-06T02:34:36;5.23;;;2.50;;
21301;SDS011;10810;48.270;9.996;2024-01-06T02:37:03;6.57;;;2.77;;
21301;SDS011;10810;48.270;9.996;2024-01-06T02:39:32;7.17;;;2.60;;
21301;SDS011;10810;48.270;9.996;2024-01-06T02:41:59;6.47;;;2.87;;
21301;SDS011;10810;48.270;9.996;2024-01-06T02:44:26;7.73;;;2.60;;
21301;SDS011;10810;48.270;9.996;2024-01-06T02:46:54;7.63;;;2.80;;
21301;SDS011;10810;48.270;9.996;2024-01-06T02:49:21;5.73;;;2.70;;
21301;SDS011;10810;48.270;9.996;2024-01-06T02:51:48;6.73;;;2.70;;
21301;SDS011;10810;48.270;9.996;2024-01-06T02:54:16;5.87;;;2.37;;
21301;SDS011;10810;48.270;9.996;2024-01-06T02:56:44;5.07;;;2.37;;
21301;SDS011;10810;48.270;9.996;2024-01-06T02:59:11;6.60;;;2.57;;
21301;SDS011;10810;48.270;9.996;2024-01-06T03:01:39;5.27;;;2.50;;
21301;SDS011;10810;48.270;9.996;2024-01-06T03:04:06;4.63;;;2.37;;
21301;SDS011;10810;48.270;9.996;2024-01-06T03:06:33;7.33;;;2.70;;
21301;SDS011;10810;48.270;9.996;2024-01-06T03:09:00;7.20;;;2.70;;
21301;SDS011;10810;48.270;9.996;2024-01-06T03:11:28;5.70;;;2.63;;
21301;SDS011;10810;48.270;9.996;2024-01-06T03:13:56;5.00;;;2.20;;
21301;SDS011;10810;48.270;9.996;2024-01-06T03:16:23;5.93;;;2.20;;
21301;SDS011;10810;48.270;9.996;2024-01-06T03:18:51;4.57;;;2.40;;
21301;SDS011;10810;48.270;9.996;2024-01-06T03:21:18;4.73;;;2.50;;
21301;SDS011;10810;48.270;9.996;2024-01-06T03:23:45;6.97;;;2.40;;
21301;SDS011;10810;48.270;9.996;2024-01-06T03:26:13;7.20;;;2.40;;
21301;SDS011;10810;48.270;9.996;2024-01-06T03:28:40;8.00;;;2.60;;
21301;SDS011;10810;48.270;9.996;2024-01-06T03:31:08;7.07;;;2.33;;
21301;SDS011;10810;48.270;9.996;2024-01-06T03:33:35;4.67;;;2.10;;
21301;SDS011;10810;48.270;9.996;2024-01-06T03:36:06;6.97;;;2.20;;
21301;SDS011;10810;48.270;9.996;2024-01-06T03:38:33;5.03;;;2.03;;
21301;SDS011;10810;48.270;9.996;2024-01-06T03:41:01;7.47;;;2.07;;
21301;SDS011;10810;48.270;9.996;2024-01-06T03:43:28;4.53;;;2.23;;
21301;SDS011;10810;48.270;9.996;2024-01-06T03:45:55;6.10;;;2.00;;
21301;SDS011;10810;48.270;9.996;2024-01-06T03:48:25;5.47;;;2.33;;
21301;SDS011;10810;48.270;9.996;2024-01-06T03:50:52;6.50;;;2.50;;
21301;SDS011;10810;48.270;9.996;2024-01-06T03:53:19;4.27;;;1.97;;
21301;SDS011;10810;48.270;9.996;2024-01-06T03:55:46;5.60;;;1.70;;
21301;SDS011;10810;48.270;9.996;2024-01-06T03:58:14;3.60;;;1.60;;
21301;SDS011;10810;48.270;9.996;2024-01-06T04:00:41;6.97;;;2.13;;
21301;SDS011;10810;48.270;9.996;2024-01-06T04:03:08;8.33;;;2.00;;
21301;SDS011;10810;48.270;9.996;2024-01-06T04:05:37;4.43;;;1.83;;
21301;SDS011;10810;48.270;9.996;2024-01-06T04:08:04;5.47;;;2.27;;
21301;SDS011;10810;48.270;9.996;2024-01-06T04:10:31;5.17;;;2.07;;
21301;SDS011;10810;48.270;9.996;2024-01-06T04:12:59;5.10;;;2.00;;
21301;SDS011;10810;48.270;9.996;2024-01-06T04:15:26;5.40;;;2.00;;
21301;SDS011;10810;48.270;9.996;2024-01-06T04:17:54;4.00;;;1.90;;
21301;SDS011;10810;48.270;9.996;2024-01-06T04:20:21;7.37;;;2.30;;
21301;SDS011;10810;48.270;9.996;2024-01-06T04:22:49;6.63;;;2.20;;
21301;SDS011;10810;48.270;9.996;2024-01-06T04:25:16;12.30;;;2.50;;
21301;SDS011;10810;48.270;9.996;2024-01-06T04:27:44;4.90;;;2.40;;
21301;SDS011;10810;48.270;9.996;2024-01-06T04:30:12;5.67;;;2.40;;
21301;SDS011;10810;48.270;9.996;2024-01-06T04:32:39;5.37;;;2.53;;
21301;SDS011;10810;48.270;9.996;2024-01-06T04:35:07;4.23;;;2.30;;
21301;SDS011;10810;48.270;9.996;2024-01-06T04:37:34;4.47;;;1.90;;
21301;SDS011;10810;48.270;9.996;2024-01-06T04:40:03;6.63;;;2.30;;
21301;SDS011;10810;48.270;9.996;2024-01-06T04:42:30;5.93;;;2.13;;
21301;SDS011;10810;48.270;9.996;2024-01-06T04:44:58;3.63;;;2.03;;
21301;SDS011;10810;48.270;9.996;2024-01-06T04:47:25;4.73;;;2.07;;
21301;SDS011;10810;48.270;9.996;2024-01-06T04:49:53;4.07;;;2.03;;
21301;SDS011;10810;48.270;9.996;2024-01-06T04:52:20;5.07;;;2.00;;
21301;SDS011;10810;48.270;9.996;2024-01-06T04:54:47;4.63;;;2.17;;
21301;SDS011;10810;48.270;9.996;2024-01-06T04:57:16;4.63;;;2.10;;
21301;SDS011;10810;48.270;9.996;2024-01-06T04:59:43;5.60;;;2.40;;
21301;SDS011;10810;48.270;9.996;2024-01-06T05:02:10;5.63;;;2.30;;
21301;SDS011;10810;48.270;9.996;2024-01-06T05:04:37;4.07;;;1.97;;
21301;SDS011;10810;48.270;9.996;2024-01-06T05:07:04;5.87;;;2.27;;
21301;SDS011;10810;48.270;9.996;2024-01-06T05:09:31;5.03;;;1.70;;
21301;SDS011;10810;48.270;9.996;2024-01-06T05:11:59;5.27;;;1.97;;
21301;SDS011;10810;48.270;9.996;2024-01-06T05:14:27;4.53;;;2.20;;
21301;SDS011;10810;48.270;9.996;2024-01-06T05:17:11;5.67;;;2.13;;
21301;SDS011;10810;48.270;9.996;2024-01-06T05:19:38;3.63;;;1.90;;
21301;SDS011;10810;48.270;9.996;2024-01-06T05:22:06;5.50;;;2.30;;
21301;SDS011;10810;48.270;9.996;2024-01-06T05:24:33;5.07;;;2.23;;
21301;SDS011;10810;48.270;9.996;2024-01-06T05:27:01;3.73;;;2.10;;
21301;SDS011;10810;48.270;9.996;2024-01-06T05:29:29;5.67;;;2.00;;
21301;SDS011;10810;48.270;9.996;2024-01-06T05:31:56;6.23;;;2.10;;
21301;SDS011;10810;48.270;9.996;2024-01-06T05:34:24;5.07;;;2.17;;
21301;SDS011;10810;48.270;9.996;2024-01-06T05:36:51;5.10;;;2.07;;
21301;SDS011;10810;48.270;9.996;2024-01-06T05:39:18;5.30;;;2.10;;
21301;SDS011;10810;48.270;9.996;2024-01-06T05:41:46;6.17;;;2.03;;
21301;SDS011;10810;48.270;9.996;2024-01-06T05:44:13;5.93;;;2.20;;
21301;SDS011;10810;48.270;9.996;2024-01-06T05:46:42;4.23;;;2.10;;
21301;SDS011;10810;48.270;9.996;2024-01-06T05:49:09;4.63;;;2.30;;
21301;SDS011;10810;48.270;9.996;2024-01-06T05:51:36;5.30;;;1.83;;
21301;SDS011;10810;48.270;9.996;2024-01-06T05:54:04;6.27;;;2.17;;
21301;SDS011;10810;48.270;9.996;2024-01-06T05:56:31;6.10;;;2.30;;
21301;SDS011;10810;48.270;9.996;2024-01-06T05:58:58;6.73;;;2.43;;
21301;SDS011;10810;48.270;9.996;2024-01-06T06:01:25;4.80;;;2.30;;
21301;SDS011;10810;48.270;9.996;2024-01-06T06:03:54;3.83;;;2.00;;
21301;SDS011;10810;48.270;9.996;2024-01-06T06:06:21;5.70;;;2.27;;
21301;SDS011;10810;48.270;9.996;2024-01-06T06:08:48;6.40;;;2.20;;
21301;SDS011;10810;48.270;9.996;2024-01-06T06:11:15;5.13;;;2.30;;
21301;SDS011;10810;48.270;9.996;2024-01-06T06:13:43;4.83;;;1.93;;
21301;SDS011;10810;48.270;9.996;2024-01-06T06:16:11;4.67;;;2.30;;
21301;SDS011;10810;48.270;9.996;2024-01-06T06:18:38;5.00;;;2.13;;
21301;SDS011;10810;48.270;9.996;2024-01-06T06:21:08;4.43;;;2.00;;
21301;SDS011;10810;48.270;9.996;2024-01-06T06:23:39;5.53;;;2.33;;
21301;SDS011;10810;48.270;9.996;2024-01-06T06:26:06;5.33;;;2.47;;
21301;SDS011;10810;48.270;9.996;2024-01-06T06:28:34;5.53;;;2.40;;
21301;SDS011;10810;48.270;9.996;2024-01-06T06:31:01;5.90;;;2.27;;
21301;SDS011;10810;48.270;9.996;2024-01-06T06:33:28;5.80;;;2.40;;
21301;SDS011;10810;48.270;9.996;2024-01-06T06:35:56;6.20;;;2.40;;
21301;SDS011;10810;48.270;9.996;2024-01-06T06:38:24;3.73;;;2.13;;
21301;SDS011;10810;48.270;9.996;2024-01-06T06:40:51;5.50;;;2.10;;
21301;SDS011;10810;48.270;9.996;2024-01-06T06:43:19;4.57;;;2.40;;
21301;SDS011;10810;48.270;9.996;2024-01-06T06:45:46;5.53;;;2.63;;
21301;SDS011;10810;48.270;9.996;2024-01-06T06:48:13;6.27;;;2.80;;
21301;SDS011;10810;48.270;9.996;2024-01-06T06:50:41;6.97;;;2.90;;
21301;SDS011;10810;48.270;9.996;2024-01-06T06:53:08;5.40;;;2.37;;
21301;SDS011;10810;48.270;9.996;2024-01-06T06:55:39;5.07;;;2.07;;
21301;SDS011;10810;48.270;9.996;2024-01-06T06:58:07;7.50;;;2.80;;
21301;SDS011;10810;48.270;9.996;2024-01-06T07:00:34;4.50;;;2.37;;
21301;SDS011;10810;48.270;9.996;2024-01-06T07:03:02;5.17;;;2.30;;
21301;SDS011;10810;48.270;9.996;2024-01-06T07:05:29;6.43;;;2.03;;
21301;SDS011;10810;48.270;9.996;2024-01-06T07:07:56;5.73;;;2.30;;
21301;SDS011;10810;48.270;9.996;2024-01-06T07:10:24;6.20;;;2.33;;
21301;SDS011;10810;48.270;9.996;2024-01-06T07:12:52;4.67;;;2.10;;
21301;SDS011;10810;48.270;9.996;2024-01-06T07:15:19;3.87;;;2.20;;
21301;SDS011;10810;48.270;9.996;2024-01-06T07:17:46;5.50;;;2.13;;
21301;SDS011;10810;48.270;9.996;2024-01-06T07:20:14;7.33;;;2.43;;
21301;SDS011;10810;48.270;9.996;2024-01-06T07:22:41;7.47;;;2.63;;
21301;SDS011;10810;48.270;9.996;2024-01-06T07:25:09;5.63;;;3.05;;
21301;SDS011;10810;48.270;9.996;2024-01-06T07:27:36;7.10;;;2.93;;
21301;SDS011;10810;48.270;9.996;2024-01-06T07:30:05;6.10;;;2.23;;
21301;SDS011;10810;48.270;9.996;2024-01-06T07:32:34;7.87;;;2.30;;
21301;SDS011;10810;48.270;9.996;2024-01-06T07:35:01;4.43;;;2.17;;
21301;SDS011;10810;48.270;9.996;2024-01-06T07:37:28;3.87;;;1.90;;
21301;SDS011;10810;48.270;9.996;2024-01-06T07:39:56;6.17;;;2.30;;
21301;SDS011;10810;48.270;9.996;2024-01-06T07:42:23;6.07;;;2.37;;
21301;SDS011;10810;48.270;9.996;2024-01-06T07:44:51;4.67;;;2.03;;
21301;SDS011;10810;48.270;9.996;2024-01-06T07:47:22;4.40;;;2.23;;
21301;SDS011;10810;48.270;9.996;2024-01-06T07:49:50;6.93;;;2.40;;
21301;SDS011;10810;48.270;9.996;2024-01-06T07:52:18;7.80;;;2.60;;
21301;SDS011;10810;48.270;9.996;2024-01-06T07:54:45;8.97;;;2.37;;
21301;SDS011;10810;48.270;9.996;2024-01-06T07:57:13;5.80;;;2.40;;
21301;SDS011;10810;48.270;9.996;2024-01-06T07:59:41;6.67;;;2.40;;
21301;SDS011;10810;48.270;9.996;2024-01-06T08:02:08;8.03;;;2.57;;
21301;SDS011;10810;48.270;9.996;2024-01-06T08:04:37;8.77;;;2.77;;
21301;SDS011;10810;48.270;9.996;2024-01-06T08:10:25;7.23;;;2.60;;
21301;SDS011;10810;48.270;9.996;2024-01-06T08:12:52;7.23;;;3.07;;
21301;SDS011;10810;48.270;9.996;2024-01-06T08:15:19;6.90;;;2.77;;
21301;SDS011;10810;48.270;9.996;2024-01-06T08:17:47;5.63;;;2.63;;
21301;SDS011;10810;48.270;9.996;2024-01-06T08:20:15;5.77;;;2.53;;
21301;SDS011;10810;48.270;9.996;2024-01-06T08:22:42;5.17;;;2.63;;
21301;SDS011;10810;48.270;9.996;2024-01-06T08:25:10;8.80;;;3.03;;
21301;SDS011;10810;48.270;9.996;2024-01-06T08:27:38;8.33;;;3.10;;
21301;SDS011;10810;48.270;9.996;2024-01-06T08:30:06;7.33;;;2.73;;
21301;SDS011;10810;48.270;9.996;2024-01-06T08:32:34;8.23;;;3.10;;
21301;SDS011;10810;48.270;9.996;2024-01-06T08:35:01;5.10;;;2.53;;
21301;SDS011;10810;48.270;9.996;2024-01-06T08:37:30;7.67;;;3.00;;
21301;SDS011;10810;48.270;9.996;2024-01-06T08:40:04;45.20;;;4.77;;
21301;SDS011;10810;48.270;9.996;2024-01-06T08:42:32;14.47;;;3.50;;
21301;SDS011;10810;48.270;9.996;2024-01-06T08:44:59;15.13;;;3.67;;
21301;SDS011;10810;48.270;9.996;2024-01-06T08:47:27;7.57;;;2.90;;
21301;SDS011;10810;48.270;9.996;2024-01-06T08:49:54;8.07;;;2.93;;
21301;SDS011;10810;48.270;9.996;2024-01-06T08:52:21;6.63;;;2.93;;
21301;SDS011;10810;48.270;9.996;2024-01-06T08:54:49;9.13;;;2.80;;
21301;SDS011;10810;48.270;9.996;2024-01-06T08:57:16;8.90;;;3.10;;
21301;SDS011;10810;48.270;9.996;2024-01-06T08:59:44;7.03;;;2.90;;
21301;SDS011;10810;48.270;9.996;2024-01-06T09:02:11;10.60;;;2.80;;
21301;SDS011;10810;48.270;9.996;2024-01-06T09:04:38;6.10;;;2.87;;
21301;SDS011;10810;48.270;9.996;2024-01-06T09:07:05;8.00;;;2.90;;
21301;SDS011;10810;48.270;9.996;2024-01-06T09:09:33;5.27;;;2.50;;
21301;SDS011;10810;48.270;9.996;2024-01-06T09:12:02;8.43;;;3.10;;
21301;SDS011;10810;48.270;9.996;2024-01-06T09:14:29;6.47;;;2.90;;
21301;SDS011;10810;48.270;9.996;2024-01-06T09:19:29;6.07;;;2.50;;
21301;SDS011;10810;48.270;9.996;2024-01-06T09:21:56;5.53;;;2.50;;
21301;SDS011;10810;48.270;9.996;2024-01-06T09:24:24;9.30;;;3.00;;
21301;SDS011;10810;48.270;9.996;2024-01-06T09:26:51;7.40;;;2.77;;
21301;SDS011;10810;48.270;9.996;2024-01-06T09:29:20;5.87;;;2.43;;
21301;SDS011;10810;48.270;9.996;2024-01-06T09:31:47;6.27;;;2.93;;
21301;SDS011;10810;48.270;9.996;2024-01-06T09:34:14;5.27;;;2.60;;
21301;SDS011;10810;48.270;9.996;2024-01-06T09:36:41;7.40;;;2.60;;
21301;SDS011;10810;48.270;9.996;2024-01-06T09:39:08;7.40;;;2.80;;
21301;SDS011;10810;48.270;9.996;2024-01-06T09:41:35;6.60;;;2.80;;
21301;SDS011;10810;48.270;9.996;2024-01-06T09:44:03;7.07;;;2.90;;
21301;SDS011;10810;48.270;9.996;2024-01-06T09:46:31;7.23;;;3.33;;
21301;SDS011;10810;48.270;9.996;2024-01-06T09:49:01;12.50;;;3.73;;
21301;SDS011;10810;48.270;9.996;2024-01-06T09:51:28;8.63;;;3.30;;
21301;SDS011;10810;48.270;9.996;2024-01-06T09:53:56;6.90;;;3.00;;
21301;SDS011;10810;48.270;9.996;2024-01-06T09:56:25;7.70;;;2.90;;
21301;SDS011;10810;48.270;9.996;2024-01-06T09:58:53;7.00;;;3.00;;
21301;SDS011;10810;48.270;9.996;2024-01-06T10:01:20;6.43;;;3.40;;
21301;SDS011;10810;48.270;9.996;2024-01-06T10:03:49;7.67;;;3.40;;
21301;SDS011;10810;48.270;9.996;2024-01-06T10:06:17;8.03;;;3.70;;
21301;SDS011;10810;48.270;9.996;2024-01-06T10:08:48;7.23;;;3.20;;
21301;SDS011;10810;48.270;9.996;2024-01-06T10:11:15;8.20;;;3.53;;
21301;SDS011;10810;48.270;9.996;2024-01-06T10:13:43;8.53;;;3.70;;
21301;SDS011;10810;48.270;9.996;2024-01-06T10:16:47;8.77;;;3.43;;
21301;SDS011;10810;48.270;9.996;2024-01-06T10:19:25;9.00;;;3.27;;
21301;SDS011;10810;48.270;9.996;2024-01-06T10:21:55;10.33;;;3.40;;
21301;SDS011;10810;48.270;9.996;2024-01-06T10:24:25;7.87;;;3.20;;
21301;SDS011;10810;48.270;9.996;2024-01-06T10:26:53;7.13;;;3.60;;
21301;SDS011;10810;48.270;9.996;2024-01-06T10:29:20;8.40;;;3.50;;
21301;SDS011;10810;48.270;9.996;2024-01-06T10:31:53;7.10;;;3.57;;
21301;SDS011;10810;48.270;9.996;2024-01-06T10:34:23;9.13;;;4.07;;
21301;SDS011;10810;48.270;9.996;2024-01-06T10:36:54;7.10;;;3.57;;
21301;SDS011;10810;48.270;9.996;2024-01-06T10:39:27;8.47;;;3.57;;
21301;SDS011;10810;48.270;9.996;2024-01-06T10:41:55;9.07;;;3.57;;
21301;SDS011;10810;48.270;9.996;2024-01-06T10:44:25;8.23;;;3.77;;
21301;SDS011;10810;48.270;9.996;2024-01-06T10:48:13;11.73;;;3.73;;
21301;SDS011;10810;48.270;9.996;2024-01-06T10:50:07;8.97;;;3.93;;
21301;SDS011;10810;48.270;9.996;2024-01-06T10:55:26;7.97;;;3.87;;
21301;SDS011;10810;48.270;9.996;2024-01-06T10:58:17;9.50;;;4.23;;
21301;SDS011;10810;48.270;9.996;2024-01-06T11:00:44;9.93;;;4.13;;
21301;SDS011;10810;48.270;9.996;2024-01-06T11:03:13;25.97;;;7.97;;
21301;SDS011;10810;48.270;9.996;2024-01-06T11:05:49;33.00;;;9.73;;
21301;SDS011;10810;48.270;9.996;2024-01-06T11:08:19;28.37;;;8.80;;
21301;SDS011;10810;48.270;9.996;2024-01-06T11:10:48;57.83;;;17.80;;
21301;SDS011;10810;48.270;9.996;2024-01-06T11:13:21;21.80;;;7.60;;
21301;SDS011;10810;48.270;9.996;2024-01-06T11:15:50;9.80;;;4.30;;
21301;SDS011;10810;48.270;9.996;2024-01-06T11:18:34;13.23;;;4.70;;
21301;SDS011;10810;48.270;9.996;2024-01-06T11:21:18;11.57;;;4.77;;
21301;SDS011;10810;48.270;9.996;2024-01-06T11:26:56;8.27;;;4.20;;
21301;SDS011;10810;48.270;9.996;2024-01-06T11:29:37;9.83;;;4.80;;
21301;SDS011;10810;48.270;9.996;2024-01-06T11:32:25;12.53;;;5.00;;
21301;SDS011;10810;48.270;9.996;2024-01-06T11:34:54;7.97;;;4.70;;
21301;SDS011;10810;48.270;9.996;2024-01-06T11:43:48;8.37;;;4.80;;
21301;SDS011;10810;48.270;9.996;2024-01-06T11:46:45;10.00;;;4.60;;
21301;SDS011;10810;48.270;9.996;2024-01-06T11:53:14;8.90;;;4.57;;
21301;SDS011;10810;48.270;9.996;2024-01-06T11:55:45;12.30;;;5.30;;
21301;SDS011;10810;48.270;9.996;2024-01-06T11:59:00;12.67;;;4.93;;
21301;SDS011;10810;48.270;9.996;2024-01-06T12:01:29;10.93;;;5.30;;
21301;SDS011;10810;48.270;9.996;2024-01-06T12:04:21;11.90;;;5.00;;
21301;SDS011;10810;48.270;9.996;2024-01-06T12:06:52;10.43;;;4.90;;
21301;SDS011;10810;48.270;9.996;2024-01-06T12:09:22;10.17;;;5.17;;
21301;SDS011;10810;48.270;9.996;2024-01-06T12:12:06;11.20;;;5.23;;
21301;SDS011;10810;48.270;9.996;2024-01-06T12:15:02;11.93;;;5.40;;
21301;SDS011;10810;48.270;9.996;2024-01-06T12:17:55;10.07;;;4.93;;
21301;SDS011;10810;48.270;9.996;2024-01-06T12:20:24;11.70;;;4.63;;
21301;SDS011;10810;48.270;9.996;2024-01-06T12:22:56;9.10;;;4.70;;
21301;SDS011;10810;48.270;9.996;2024-01-06T12:25:31;9.20;;;4.40;;
21301;SDS011;10810;48.270;9.996;2024-01-06T12:28:06;12.23;;;5.07;;
21301;SDS011;10810;48.270;9.996;2024-01-06T12:30:44;9.33;;;4.87;;
21301;SDS011;10810;48.270;9.996;2024-01-06T12:33:11;9.23;;;4.40;;
21301;SDS011;10810;48.270;9.996;2024-01-06T12:35:39;8.60;;;4.77;;
21301;SDS011;10810;48.270;9.996;2024-01-06T12:38:08;9.23;;;4.20;;
21301;SDS011;10810;48.270;9.996;2024-01-06T12:40:43;10.13;;;4.63;;
21301;SDS011;10810;48.270;9.996;2024-01-06T12:43:13;10.33;;;4.53;;
21301;SDS011;10810;48.270;9.996;2024-01-06T12:48:44;11.37;;;4.43;;
21301;SDS011;10810;48.270;9.996;2024-01-06T12:51:11;11.43;;;4.40;;
21301;SDS011;10810;48.270;9.996;2024-01-06T12:53:38;12.23;;;4.50;;
21301;SDS011;10810;48.270;9.996;2024-01-06T12:56:05;9.37;;;4.13;;
21301;SDS011;10810;48.270;9.996;2024-01-06T12:58:33;10.33;;;4.50;;
21301;SDS011;10810;48.270;9.996;2024-01-06T13:01:00;10.23;;;4.50;;
21301;SDS011;10810;48.270;9.996;2024-01-06T13:03:29;9.03;;;4.43;;
21301;SDS011;10810;48.270;9.996;2024-01-06T13:05:56;10.80;;;4.87;;
21301;SDS011;10810;48.270;9.996;2024-01-06T13:08:24;14.07;;;6.63;;
21301;SDS011;10810;48.270;9.996;2024-01-06T13:10:51;10.47;;;5.20;;
21301;SDS011;10810;48.270;9.996;2024-01-06T13:13:19;11.90;;;4.70;;
21301;SDS011;10810;48.270;9.996;2024-01-06T13:15:46;9.77;;;4.60;;
21301;SDS011;10810;48.270;9.996;2024-01-06T13:18:13;8.83;;;4.30;;
21301;SDS011;10810;48.270;9.996;2024-01-06T13:20:43;7.80;;;4.03;;
21301;SDS011;10810;48.270;9.996;2024-01-06T13:23:10;7.77;;;3.80;;
21301;SDS011;10810;48.270;9.996;2024-01-06T13:25:38;12.43;;;4.13;;
21301;SDS011;10810;48.270;9.996;2024-01-06T13:28:07;11.27;;;4.20;;
21301;SDS011;10810;48.270;9.996;2024-01-06T13:30:34;8.67;;;3.90;;
21301;SDS011;10810;48.270;9.996;2024-01-06T13:33:03;8.40;;;3.80;;
21301;SDS011;10810;48.270;9.996;2024-01-06T13:35:32;10.50;;;3.73;;
21301;SDS011;10810;48.270;9.996;2024-01-06T13:38:06;7.67;;;3.90;;
21301;SDS011;10810;48.270;9.996;2024-01-06T13:40:43;8.97;;;3.77;;
21301;SDS011;10810;48.270;9.996;2024-01-06T13:43:12;9.37;;;4.27;;
21301;SDS011;10810;48.270;9.996;2024-01-06T13:45:58;13.97;;;4.17;;
21301;SDS011;10810;48.270;9.996;2024-01-06T13:48:31;9.17;;;4.27;;
21301;SDS011;10810;48.270;9.996;2024-01-06T13:51:12;9.17;;;4.03;;
21301;SDS011;10810;48.270;9.996;2024-01-06T13:56:51;9.70;;;3.73;;
21301;SDS011;10810;48.270;9.996;2024-01-06T13:59:28;9.83;;;4.03;;
21301;SDS011;10810;48.270;9.996;2024-01-06T14:02:09;7.37;;;3.73;;
21301;SDS011;10810;48.270;9.996;2024-01-06T14:08:32;8.67;;;4.00;;
21301;SDS011;10810;48.270;9.996;2024-01-06T14:11:11;7.20;;;3.90;;
21301;SDS011;10810;48.270;9.996;2024-01-06T14:13:41;9.13;;;4.17;;
21301;SDS011;10810;48.270;9.996;2024-01-06T14:20:14;10.47;;;4.50;;
21301;SDS011;10810;48.270;9.996;2024-01-06T14:23:01;10.13;;;4.60;;
21301;SDS011;10810;48.270;9.996;2024-01-06T14:25:29;12.00;;;5.13;;
21301;SDS011;10810;48.270;9.996;2024-01-06T14:28:09;28.53;;;11.30;;
21301;SDS011;10810;48.270;9.996;2024-01-06T14:30:44;21.87;;;10.53;;
21301;SDS011;10810;48.270;9.996;2024-01-06T14:33:24;10.87;;;4.93;;
21301;SDS011;10810;48.270;9.996;2024-01-06T14:37:31;10.13;;;4.40;;
21301;SDS011;10810;48.270;9.996;2024-01-06T14:39:18;8.40;;;4.13;;
21301;SDS011;10810;48.270;9.996;2024-01-06T14:42:01;8.87;;;4.20;;
21301;SDS011;10810;48.270;9.996;2024-01-06T14:45:01;9.07;;;4.27;;
21301;SDS011;10810;48.270;9.996;2024-01-06T14:48:30;10.13;;;4.33;;
21301;SDS011;10810;48.270;9.996;2024-01-06T14:50:57;14.00;;;5.13;;
21301;SDS011;10810;48.270;9.996;2024-01-06T14:53:35;12.37;;;5.50;;
21301;SDS011;10810;48.270;9.996;2024-01-06T14:59:25;10.90;;;4.67;;
21301;SDS011;10810;48.270;9.996;2024-01-06T15:01:54;13.73;;;5.40;;
21301;SDS011;10810;48.270;9.996;2024-01-06T15:10:38;11.73;;;5.63;;
21301;SDS011;10810;48.270;9.996;2024-01-06T15:13:26;13.17;;;6.23;;
21301;SDS011;10810;48.270;9.996;2024-01-06T15:16:10;13.17;;;5.83;;
21301;SDS011;10810;48.270;9.996;2024-01-06T15:18:51;10.67;;;4.87;;
21301;SDS011;10810;48.270;9.996;2024-01-06T15:21:21;11.60;;;5.43;;
21301;SDS011;10810;48.270;9.996;2024-01-06T15:23:48;9.13;;;4.57;;
21301;SDS011;10810;48.270;9.996;2024-01-06T15:29:32;10.40;;;4.83;;
21301;SDS011;10810;48.270;9.996;2024-01-06T15:32:21;8.10;;;4.23;;
21301;SDS011;10810;48.270;9.996;2024-01-06T15:34:50;9.53;;;4.33;;
21301;SDS011;10810;48.270;9.996;2024-01-06T15:37:19;11.07;;;4.90;;
21301;SDS011;10810;48.270;9.996;2024-01-06T15:39:46;9.83;;;4.90;;
21301;SDS011;10810;48.270;9.996;2024-01-06T15:42:15;10.77;;;5.17;;
21301;SDS011;10810;48.270;9.996;2024-01-06T15:44:44;9.97;;;4.30;;
21301;SDS011;10810;48.270;9.996;2024-01-06T15:47:12;7.90;;;4.33;;
21301;SDS011;10810;48.270;9.996;2024-01-06T15:49:40;8.53;;;4.33;;